sensor_id;sensor_type;location;lat;lon;timestamp;P1;durP1;ratioP1;P2;durP2;ratioP2
50161;SDS011;36061;48.116;11.612;2022-11-20T00:01:27;1.73;;;1.10;;
50161;SDS011;36061;48.116;11.612;2022-11-20T00:03:54;4.13;;;1.37;;
50161;SDS011;36061;48.116;11.612;2022-11-20T00:06:21;2.03;;;1.50;;
50161;SDS011;36061;48.116;11.612;2022-11-20T00:08:47;1.70;;;1.20;;
50161;SDS011;36061;48.116;11.612;2022-11-20T00:11:15;2.67;;;1.57;;
50161;SDS011;36061;48.116;11.612;2022-11-20T00:13:43;1.67;;;1.30;;
50161;SDS011;36061;48.116;11.612;2022-11-20T00:16:10;1.43;;;1.20;;
50161;SDS011;36061;48.116;11.612;2022-11-20T00:18:37;1.57;;;1.30;;
50161;SDS011;36061;48.116;11.612;2022-11-20T00:23:30;2.13;;;1.40;;
50161;SDS011;36061;48.116;11.612;2022-11-20T00:25:56;3.57;;;1.50;;
50161;SDS011;36061;48.116;11.612;2022-11-20T00:28:21;3.10;;;1.60;;
50161;SDS011;36061;48.116;11.612;2022-11-20T00:30:47;2.87;;;1.40;;
50161;SDS011;36061;48.116;11.612;2022-11-20T00:33:13;2.30;;;1.40;;
50161;SDS011;36061;48.116;11.612;2022-11-20T00:35:38;2.07;;;1.53;;
50161;SDS011;36061;48.116;11.612;2022-11-20T00:38:04;2.10;;;1.60;;
50161;SDS011;36061;48.116;11.612;2022-11-20T00:40:30;2.33;;;1.53;;
50161;SDS011;36061;48.116;11.612;2022-11-20T00:42:56;3.57;;;1.30;;
50161;SDS011;36061;48.116;11.612;2022-11-20T00:45:21;2.07;;;1.60;;
50161;SDS011;36061;48.116;11.612;2022-11-20T00:47:47;2.63;;;1.60;;
50161;SDS011;36061;48.116;11.612;2022-11-20T00:50:13;2.43;;;1.40;;
50161;SDS011;36061;48.116;11.612;2022-11-20T00:52:39;1.83;;;1.50;;
50161;SDS011;36061;48.116;11.612;2022-11-20T00:55:05;3.07;;;1.83;;
50161;SDS011;36061;48.116;11.612;2022-11-20T00:57:31;1.60;;;1.50;;
50161;SDS011;36061;48.116;11.612;2022-11-20T00:59:57;2.23;;;1.40;;
50161;SDS011;36061;48.116;11.612;2022-11-20T01:02:22;4.30;;;1.63;;
50161;SDS011;36061;48.116;11.612;2022-11-20T01:04:48;2.43;;;1.70;;
50161;SDS011;36061;48.116;11.612;2022-11-20T01:07:14;2.10;;;1.47;;
50161;SDS011;36061;48.116;11.612;2022-11-20T01:09:40;2.47;;;1.40;;
50161;SDS011;36061;48.116;11.612;2022-11-20T01:12:05;1.60;;;1.23;;
50161;SDS011;36061;48.116;11.612;2022-11-20T01:14:31;2.27;;;1.50;;
50161;SDS011;36061;48.116;11.612;2022-11-20T01:16:57;2.03;;;1.43;;
50161;SDS011;36061;48.116;11.612;2022-11-20T01:19:23;1.77;;;1.57;;
50161;SDS011;36061;48.116;11.612;2022-11-20T01:21:50;3.27;;;1.57;;
50161;SDS011;36061;48.116;11.612;2022-11-20T01:24:19;1.73;;;1.63;;
50161;SDS011;36061;48.116;11.612;2022-11-20T01:26:47;2.10;;;1.60;;
50161;SDS011;36061;48.116;11.612;2022-11-20T01:29:15;2.03;;;1.23;;
50161;SDS011;36061;48.116;11.612;2022-11-20T01:31:43;3.47;;;1.50;;
50161;SDS011;36061;48.116;11.612;2022-11-20T01:34:10;3.00;;;1.47;;
50161;SDS011;36061;48.116;11.612;2022-11-20T01:36:41;2.60;;;1.60;;
50161;SDS011;36061;48.116;11.612;2022-11-20T01:39:10;1.87;;;1.47;;
50161;SDS011;36061;48.116;11.612;2022-11-20T01:41:37;1.67;;;1.53;;
50161;SDS011;36061;48.116;11.612;2022-11-20T01:44:41;3.27;;;1.73;;
50161;SDS011;36061;48.116;11.612;2022-11-20T01:47:11;3.00;;;1.23;;
50161;SDS011;36061;48.116;11.612;2022-11-20T01:49:41;2.20;;;1.40;;
50161;SDS011;36061;48.116;11.612;2022-11-20T01:52:15;2.07;;;1.27;;
50161;SDS011;36061;48.116;11.612;2022-11-20T01:57:21;2.23;;;1.70;;
50161;SDS011;36061;48.116;11.612;2022-11-20T02:00:00;1.57;;;1.40;;
50161;SDS011;36061;48.116;11.612;2022-11-20T02:02:38;2.00;;;1.50;;
50161;SDS011;36061;48.116;11.612;2022-11-20T02:05:22;1.80;;;1.40;;
50161;SDS011;36061;48.116;11.612;2022-11-20T02:08:07;3.30;;;1.40;;
50161;SDS011;36061;48.116;11.612;2022-11-20T02:10:33;1.87;;;1.50;;
50161;SDS011;36061;48.116;11.612;2022-11-20T02:12:59;1.73;;;1.30;;
50161;SDS011;36061;48.116;11.612;2022-11-20T02:15:43;2.20;;;1.67;;
50161;SDS011;36061;48.116;11.612;2022-11-20T02:18:10;1.47;;;1.20;;
50161;SDS011;36061;48.116;11.612;2022-11-20T02:20:39;1.80;;;1.23;;
50161;SDS011;36061;48.116;11.612;2022-11-20T02:23:12;1.73;;;1.40;;
50161;SDS011;36061;48.116;11.612;2022-11-20T02:25:58;3.07;;;1.40;;
50161;SDS011;36061;48.116;11.612;2022-11-20T02:28:27;1.90;;;1.50;;
50161;SDS011;36061;48.116;11.612;2022-11-20T02:30:52;2.10;;;1.23;;
50161;SDS011;36061;48.116;11.612;2022-11-20T02:33:18;1.77;;;1.37;;
50161;SDS011;36061;48.116;11.612;2022-11-20T02:35:47;1.60;;;1.30;;
50161;SDS011;36061;48.116;11.612;2022-11-20T02:38:13;2.40;;;1.67;;
50161;SDS011;36061;48.116;11.612;2022-11-20T02:40:39;1.80;;;1.50;;
50161;SDS011;36061;48.116;11.612;2022-11-20T02:43:05;3.10;;;1.80;;
50161;SDS011;36061;48.116;11.612;2022-11-20T02:45:32;2.93;;;1.50;;
50161;SDS011;36061;48.116;11.612;2022-11-20T02:47:58;1.47;;;1.27;;
50161;SDS011;36061;48.116;11.612;2022-11-20T02:50:24;4.40;;;1.30;;
50161;SDS011;36061;48.116;11.612;2022-11-20T02:52:50;2.23;;;1.50;;
50161;SDS011;36061;48.116;11.612;2022-11-20T02:55:15;3.97;;;2.07;;
50161;SDS011;36061;48.116;11.612;2022-11-20T02:57:41;2.00;;;1.70;;
50161;SDS011;36061;48.116;11.612;2022-11-20T03:00:07;1.80;;;1.53;;
50161;SDS011;36061;48.116;11.612;2022-11-20T03:02:34;2.00;;;1.30;;
50161;SDS011;36061;48.116;11.612;2022-11-20T03:05:00;3.50;;;1.90;;
50161;SDS011;36061;48.116;11.612;2022-11-20T03:07:26;2.47;;;1.70;;
50161;SDS011;36061;48.116;11.612;2022-11-20T03:09:51;2.03;;;1.70;;
50161;SDS011;36061;48.116;11.612;2022-11-20T03:12:17;2.50;;;1.60;;
50161;SDS011;36061;48.116;11.612;2022-11-20T03:14:43;1.90;;;1.70;;
50161;SDS011;36061;48.116;11.612;2022-11-20T03:17:09;2.43;;;1.90;;
50161;SDS011;36061;48.116;11.612;2022-11-20T03:19:34;2.13;;;1.40;;
50161;SDS011;36061;48.116;11.612;2022-11-20T03:22:00;1.83;;;1.57;;
50161;SDS011;36061;48.116;11.612;2022-11-20T03:24:26;3.17;;;1.53;;
50161;SDS011;36061;48.116;11.612;2022-11-20T03:26:52;1.83;;;1.57;;
50161;SDS011;36061;48.116;11.612;2022-11-20T03:29:17;4.83;;;2.13;;
50161;SDS011;36061;48.116;11.612;2022-11-20T03:31:43;2.90;;;1.50;;
50161;SDS011;36061;48.116;11.612;2022-11-20T03:34:10;2.03;;;1.80;;
50161;SDS011;36061;48.116;11.612;2022-11-20T03:36:40;1.50;;;1.40;;
50161;SDS011;36061;48.116;11.612;2022-11-20T03:39:06;2.50;;;1.80;;
50161;SDS011;36061;48.116;11.612;2022-11-20T03:41:36;2.17;;;1.70;;
50161;SDS011;36061;48.116;11.612;2022-11-20T03:44:04;2.00;;;1.60;;
50161;SDS011;36061;48.116;11.612;2022-11-20T03:46:31;3.77;;;2.80;;
50161;SDS011;36061;48.116;11.612;2022-11-20T03:48:57;3.07;;;1.67;;
50161;SDS011;36061;48.116;11.612;2022-11-20T03:51:27;2.10;;;1.67;;
50161;SDS011;36061;48.116;11.612;2022-11-20T03:53:55;1.90;;;1.70;;
50161;SDS011;36061;48.116;11.612;2022-11-20T03:56:24;2.97;;;1.93;;
50161;SDS011;36061;48.116;11.612;2022-11-20T03:58:54;1.90;;;1.60;;
50161;SDS011;36061;48.116;11.612;2022-11-20T04:01:25;1.90;;;1.53;;
50161;SDS011;36061;48.116;11.612;2022-11-20T04:03:53;2.13;;;1.90;;
50161;SDS011;36061;48.116;11.612;2022-11-20T04:06:21;2.33;;;1.90;;
50161;SDS011;36061;48.116;11.612;2022-11-20T04:08:53;2.10;;;1.73;;
50161;SDS011;36061;48.116;11.612;2022-11-20T04:11:27;2.30;;;1.87;;
50161;SDS011;36061;48.116;11.612;2022-11-20T04:13:55;2.87;;;1.80;;
50161;SDS011;36061;48.116;11.612;2022-11-20T04:16:24;2.20;;;1.70;;
50161;SDS011;36061;48.116;11.612;2022-11-20T04:18:51;3.03;;;1.87;;
50161;SDS011;36061;48.116;11.612;2022-11-20T04:21:18;3.33;;;1.80;;
50161;SDS011;36061;48.116;11.612;2022-11-20T04:23:43;2.47;;;1.67;;
50161;SDS011;36061;48.116;11.612;2022-11-20T04:26:10;2.20;;;1.70;;
50161;SDS011;36061;48.116;11.612;2022-11-20T04:28:37;1.83;;;1.60;;
50161;SDS011;36061;48.116;11.612;2022-11-20T04:31:13;3.13;;;1.67;;
50161;SDS011;36061;48.116;11.612;2022-11-20T04:33:41;3.10;;;1.50;;
50161;SDS011;36061;48.116;11.612;2022-11-20T04:36:14;1.53;;;1.23;;
50161;SDS011;36061;48.116;11.612;2022-11-20T04:38:40;1.97;;;1.63;;
50161;SDS011;36061;48.116;11.612;2022-11-20T04:41:07;2.03;;;1.60;;
50161;SDS011;36061;48.116;11.612;2022-11-20T04:43:37;3.30;;;1.90;;
50161;SDS011;36061;48.116;11.612;2022-11-20T04:46:02;3.30;;;1.70;;
50161;SDS011;36061;48.116;11.612;2022-11-20T04:48:28;1.90;;;1.70;;
50161;SDS011;36061;48.116;11.612;2022-11-20T04:50:54;1.63;;;1.53;;
50161;SDS011;36061;48.116;11.612;2022-11-20T04:53:21;1.70;;;1.50;;
50161;SDS011;36061;48.116;11.612;2022-11-20T04:55:47;3.63;;;1.70;;
50161;SDS011;36061;48.116;11.612;2022-11-20T04:58:13;2.13;;;1.67;;
50161;SDS011;36061;48.116;11.612;2022-11-20T05:00:39;1.97;;;1.50;;
50161;SDS011;36061;48.116;11.612;2022-11-20T05:03:05;2.27;;;1.83;;
50161;SDS011;36061;48.116;11.612;2022-11-20T05:05:32;1.77;;;1.50;;
50161;SDS011;36061;48.116;11.612;2022-11-20T05:07:59;2.07;;;1.63;;
50161;SDS011;36061;48.116;11.612;2022-11-20T05:10:25;2.13;;;1.80;;
50161;SDS011;36061;48.116;11.612;2022-11-20T05:12:51;3.27;;;2.10;;
50161;SDS011;36061;48.116;11.612;2022-11-20T05:15:17;2.13;;;1.70;;
50161;SDS011;36061;48.116;11.612;2022-11-20T05:17:50;2.27;;;1.60;;
50161;SDS011;36061;48.116;11.612;2022-11-20T05:20:17;2.80;;;1.70;;
50161;SDS011;36061;48.116;11.612;2022-11-20T05:22:43;2.13;;;1.80;;
50161;SDS011;36061;48.116;11.612;2022-11-20T05:25:10;3.10;;;2.10;;
50161;SDS011;36061;48.116;11.612;2022-11-20T05:27:37;3.07;;;2.10;;
50161;SDS011;36061;48.116;11.612;2022-11-20T05:30:06;3.37;;;1.80;;
50161;SDS011;36061;48.116;11.612;2022-11-20T05:32:32;2.93;;;1.77;;
50161;SDS011;36061;48.116;11.612;2022-11-20T05:34:58;2.30;;;1.80;;
50161;SDS011;36061;48.116;11.612;2022-11-20T05:37:24;2.87;;;1.90;;
50161;SDS011;36061;48.116;11.612;2022-11-20T05:39:49;3.23;;;2.27;;
50161;SDS011;36061;48.116;11.612;2022-11-20T05:42:15;1.83;;;1.67;;
50161;SDS011;36061;48.116;11.612;2022-11-20T05:44:57;5.37;;;1.67;;
50161;SDS011;36061;48.116;11.612;2022-11-20T05:47:31;2.43;;;1.73;;
50161;SDS011;36061;48.116;11.612;2022-11-20T05:49:58;2.60;;;1.80;;
50161;SDS011;36061;48.116;11.612;2022-11-20T05:52:24;1.70;;;1.60;;
50161;SDS011;36061;48.116;11.612;2022-11-20T05:54:53;4.07;;;1.93;;
50161;SDS011;36061;48.116;11.612;2022-11-20T05:57:18;2.00;;;1.47;;
50161;SDS011;36061;48.116;11.612;2022-11-20T05:59:44;3.07;;;1.90;;
50161;SDS011;36061;48.116;11.612;2022-11-20T06:02:10;2.37;;;1.77;;
50161;SDS011;36061;48.116;11.612;2022-11-20T06:04:36;2.10;;;1.60;;
50161;SDS011;36061;48.116;11.612;2022-11-20T06:07:01;3.57;;;1.80;;
50161;SDS011;36061;48.116;11.612;2022-11-20T06:09:27;2.83;;;1.60;;
50161;SDS011;36061;48.116;11.612;2022-11-20T06:11:53;6.60;;;1.70;;
50161;SDS011;36061;48.116;11.612;2022-11-20T06:14:19;2.43;;;1.80;;
50161;SDS011;36061;48.116;11.612;2022-11-20T06:16:44;2.00;;;1.70;;
50161;SDS011;36061;48.116;11.612;2022-11-20T06:19:10;1.97;;;1.43;;
50161;SDS011;36061;48.116;11.612;2022-11-20T06:21:36;1.87;;;1.50;;
50161;SDS011;36061;48.116;11.612;2022-11-20T06:24:02;2.33;;;1.67;;
50161;SDS011;36061;48.116;11.612;2022-11-20T06:26:28;2.23;;;1.60;;
50161;SDS011;36061;48.116;11.612;2022-11-20T06:28:55;2.07;;;1.50;;
50161;SDS011;36061;48.116;11.612;2022-11-20T06:31:22;1.47;;;1.20;;
50161;SDS011;36061;48.116;11.612;2022-11-20T06:33:49;1.70;;;1.33;;
50161;SDS011;36061;48.116;11.612;2022-11-20T06:36:16;3.37;;;1.80;;
50161;SDS011;36061;48.116;11.612;2022-11-20T06:38:44;2.20;;;1.30;;
50161;SDS011;36061;48.116;11.612;2022-11-20T06:41:11;2.13;;;1.60;;
50161;SDS011;36061;48.116;11.612;2022-11-20T06:43:38;1.80;;;1.60;;
50161;SDS011;36061;48.116;11.612;2022-11-20T06:46:04;1.90;;;1.43;;
50161;SDS011;36061;48.116;11.612;2022-11-20T06:48:30;1.80;;;1.37;;
50161;SDS011;36061;48.116;11.612;2022-11-20T06:50:56;1.77;;;1.27;;
50161;SDS011;36061;48.116;11.612;2022-11-20T06:53:22;2.13;;;1.47;;
50161;SDS011;36061;48.116;11.612;2022-11-20T06:55:48;2.00;;;1.20;;
50161;SDS011;36061;48.116;11.612;2022-11-20T06:58:15;1.20;;;1.10;;
50161;SDS011;36061;48.116;11.612;2022-11-20T07:00:41;1.87;;;1.63;;
50161;SDS011;36061;48.116;11.612;2022-11-20T07:03:08;1.90;;;1.10;;
50161;SDS011;36061;48.116;11.612;2022-11-20T07:05:35;1.80;;;1.47;;
50161;SDS011;36061;48.116;11.612;2022-11-20T07:08:01;1.90;;;1.47;;
50161;SDS011;36061;48.116;11.612;2022-11-20T07:10:28;1.30;;;1.20;;
50161;SDS011;36061;48.116;11.612;2022-11-20T07:12:54;4.53;;;1.60;;
50161;SDS011;36061;48.116;11.612;2022-11-20T07:15:20;3.20;;;1.60;;
50161;SDS011;36061;48.116;11.612;2022-11-20T07:17:47;2.40;;;1.20;;
50161;SDS011;36061;48.116;11.612;2022-11-20T07:20:13;2.53;;;1.37;;
50161;SDS011;36061;48.116;11.612;2022-11-20T07:22:40;1.57;;;1.47;;
50161;SDS011;36061;48.116;11.612;2022-11-20T07:25:06;1.50;;;1.40;;
50161;SDS011;36061;48.116;11.612;2022-11-20T07:27:33;1.40;;;1.30;;
50161;SDS011;36061;48.116;11.612;2022-11-20T07:29:59;2.63;;;1.77;;
50161;SDS011;36061;48.116;11.612;2022-11-20T07:32:25;1.80;;;1.50;;
50161;SDS011;36061;48.116;11.612;2022-11-20T07:34:51;2.63;;;1.70;;
50161;SDS011;36061;48.116;11.612;2022-11-20T07:37:17;1.50;;;1.40;;
50161;SDS011;36061;48.116;11.612;2022-11-20T07:39:43;2.80;;;1.87;;
50161;SDS011;36061;48.116;11.612;2022-11-20T07:42:09;2.27;;;1.43;;
50161;SDS011;36061;48.116;11.612;2022-11-20T07:44:36;2.77;;;1.67;;
50161;SDS011;36061;48.116;11.612;2022-11-20T07:47:02;2.93;;;1.90;;
50161;SDS011;36061;48.116;11.612;2022-11-20T07:49:27;1.50;;;1.40;;
50161;SDS011;36061;48.116;11.612;2022-11-20T07:51:53;2.60;;;2.07;;
50161;SDS011;36061;48.116;11.612;2022-11-20T07:54:19;2.20;;;1.53;;
50161;SDS011;36061;48.116;11.612;2022-11-20T07:56:46;2.43;;;1.67;;
50161;SDS011;36061;48.116;11.612;2022-11-20T07:59:12;2.93;;;1.40;;
50161;SDS011;36061;48.116;11.612;2022-11-20T08:01:39;2.17;;;1.50;;
50161;SDS011;36061;48.116;11.612;2022-11-20T08:04:04;1.50;;;1.40;;
50161;SDS011;36061;48.116;11.612;2022-11-20T08:06:30;1.60;;;1.30;;
50161;SDS011;36061;48.116;11.612;2022-11-20T08:08:56;2.97;;;1.50;;
50161;SDS011;36061;48.116;11.612;2022-11-20T08:11:22;2.13;;;1.40;;
50161;SDS011;36061;48.116;11.612;2022-11-20T08:14:06;1.83;;;1.30;;
50161;SDS011;36061;48.116;11.612;2022-11-20T08:16:42;2.97;;;1.53;;
50161;SDS011;36061;48.116;11.612;2022-11-20T08:19:09;1.87;;;1.50;;
50161;SDS011;36061;48.116;11.612;2022-11-20T08:21:35;2.07;;;1.63;;
50161;SDS011;36061;48.116;11.612;2022-11-20T08:24:01;2.50;;;1.40;;
50161;SDS011;36061;48.116;11.612;2022-11-20T08:26:27;1.80;;;1.53;;
50161;SDS011;36061;48.116;11.612;2022-11-20T08:28:53;2.37;;;1.63;;
50161;SDS011;36061;48.116;11.612;2022-11-20T08:31:22;1.77;;;1.47;;
50161;SDS011;36061;48.116;11.612;2022-11-20T08:33:49;4.60;;;1.40;;
50161;SDS011;36061;48.116;11.612;2022-11-20T08:36:24;4.00;;;2.20;;
50161;SDS011;36061;48.116;11.612;2022-11-20T08:39:02;2.37;;;1.73;;
50161;SDS011;36061;48.116;11.612;2022-11-20T08:41:31;4.77;;;3.10;;
50161;SDS011;36061;48.116;11.612;2022-11-20T08:44:05;3.00;;;1.93;;
50161;SDS011;36061;48.116;11.612;2022-11-20T08:46:36;3.93;;;2.83;;
50161;SDS011;36061;48.116;11.612;2022-11-20T08:49:06;6.60;;;3.50;;
50161;SDS011;36061;48.116;11.612;2022-11-20T08:51:34;2.73;;;1.67;;
50161;SDS011;36061;48.116;11.612;2022-11-20T08:54:00;3.30;;;2.13;;
50161;SDS011;36061;48.116;11.612;2022-11-20T08:56:26;5.87;;;4.40;;
50161;SDS011;36061;48.116;11.612;2022-11-20T08:58:52;7.17;;;4.13;;
50161;SDS011;36061;48.116;11.612;2022-11-20T09:01:21;4.07;;;2.90;;
50161;SDS011;36061;48.116;11.612;2022-11-20T09:03:48;16.10;;;9.37;;
50161;SDS011;36061;48.116;11.612;2022-11-20T09:06:14;12.33;;;5.27;;
50161;SDS011;36061;48.116;11.612;2022-11-20T09:08:41;6.93;;;3.00;;
50161;SDS011;36061;48.116;11.612;2022-11-20T09:11:07;6.47;;;3.30;;
50161;SDS011;36061;48.116;11.612;2022-11-20T09:13:33;9.73;;;4.73;;
50161;SDS011;36061;48.116;11.612;2022-11-20T09:16:04;18.37;;;8.37;;
50161;SDS011;36061;48.116;11.612;2022-11-20T09:18:32;13.00;;;5.50;;
50161;SDS011;36061;48.116;11.612;2022-11-20T09:20:59;16.30;;;7.33;;
50161;SDS011;36061;48.116;11.612;2022-11-20T09:23:26;28.17;;;11.93;;
50161;SDS011;36061;48.116;11.612;2022-11-20T09:25:52;39.73;;;19.23;;
50161;SDS011;36061;48.116;11.612;2022-11-20T09:28:20;8.00;;;4.17;;
50161;SDS011;36061;48.116;11.612;2022-11-20T09:30:46;4.63;;;2.70;;
50161;SDS011;36061;48.116;11.612;2022-11-20T09:33:12;8.07;;;4.23;;
50161;SDS011;36061;48.116;11.612;2022-11-20T09:35:38;1.97;;;1.53;;
50161;SDS011;36061;48.116;11.612;2022-11-20T09:38:07;4.53;;;2.97;;
50161;SDS011;36061;48.116;11.612;2022-11-20T09:40:34;7.30;;;4.30;;
50161;SDS011;36061;48.116;11.612;2022-11-20T09:45:49;4.83;;;3.33;;
50161;SDS011;36061;48.116;11.612;2022-11-20T09:56:19;2.30;;;1.30;;
50161;SDS011;36061;48.116;11.612;2022-11-20T09:58:50;4.20;;;1.40;;
50161;SDS011;36061;48.116;11.612;2022-11-20T10:01:21;2.80;;;1.90;;
50161;SDS011;36061;48.116;11.612;2022-11-20T10:06:23;1.07;;;0.97;;
50161;SDS011;36061;48.116;11.612;2022-11-20T10:09:00;1.73;;;1.43;;
50161;SDS011;36061;48.116;11.612;2022-11-20T10:11:35;2.03;;;1.10;;
50161;SDS011;36061;48.116;11.612;2022-11-20T10:31:09;1.00;;;0.90;;
50161;SDS011;36061;48.116;11.612;2022-11-20T10:33:41;3.30;;;1.30;;
50161;SDS011;36061;48.116;11.612;2022-11-20T10:36:17;1.00;;;0.90;;
50161;SDS011;36061;48.116;11.612;2022-11-20T10:38:59;1.33;;;1.23;;
50161;SDS011;36061;48.116;11.612;2022-11-20T10:41:32;1.63;;;1.07;;
50161;SDS011;36061;48.116;11.612;2022-11-20T10:44:09;1.40;;;0.97;;
50161;SDS011;36061;48.116;11.612;2022-11-20T10:47:01;1.23;;;1.13;;
50161;SDS011;36061;48.116;11.612;2022-11-20T10:49:29;0.83;;;0.83;;
50161;SDS011;36061;48.116;11.612;2022-11-20T10:52:10;1.10;;;0.70;;
50161;SDS011;36061;48.116;11.612;2022-11-20T11:00:34;1.00;;;0.70;;
50161;SDS011;36061;48.116;11.612;2022-11-20T11:02:59;1.00;;;0.90;;
50161;SDS011;36061;48.116;11.612;2022-11-20T11:05:38;0.80;;;0.80;;
50161;SDS011;36061;48.116;11.612;2022-11-20T11:08:13;1.50;;;1.00;;
50161;SDS011;36061;48.116;11.612;2022-11-20T11:13:25;1.63;;;0.93;;
50161;SDS011;36061;48.116;11.612;2022-11-20T11:15:53;1.60;;;1.23;;
50161;SDS011;36061;48.116;11.612;2022-11-20T11:18:26;1.27;;;1.10;;
50161;SDS011;36061;48.116;11.612;2022-11-20T11:20:54;0.70;;;0.70;;
50161;SDS011;36061;48.116;11.612;2022-11-20T11:23:39;1.10;;;1.00;;
50161;SDS011;36061;48.116;11.612;2022-11-20T11:26:17;0.90;;;0.80;;
50161;SDS011;36061;48.116;11.612;2022-11-20T11:29:01;1.40;;;0.90;;
50161;SDS011;36061;48.116;11.612;2022-11-20T11:31:29;0.93;;;0.87;;
50161;SDS011;36061;48.116;11.612;2022-11-20T11:34:17;1.53;;;1.03;;
50161;SDS011;36061;48.116;11.612;2022-11-20T11:36:56;1.87;;;0.80;;
50161;SDS011;36061;48.116;11.612;2022-11-20T11:39:23;1.03;;;0.90;;
50161;SDS011;36061;48.116;11.612;2022-11-20T11:41:50;1.80;;;1.10;;
50161;SDS011;36061;48.116;11.612;2022-11-20T11:44:44;2.23;;;1.10;;
50161;SDS011;36061;48.116;11.612;2022-11-20T11:47:31;0.80;;;0.80;;
50161;SDS011;36061;48.116;11.612;2022-11-20T11:50:02;2.17;;;1.13;;
50161;SDS011;36061;48.116;11.612;2022-11-20T12:00:51;1.17;;;0.90;;
50161;SDS011;36061;48.116;11.612;2022-11-20T12:03:37;1.83;;;1.10;;
50161;SDS011;36061;48.116;11.612;2022-11-20T12:06:10;2.90;;;1.50;;
50161;SDS011;36061;48.116;11.612;2022-11-20T12:08:47;1.53;;;1.07;;
50161;SDS011;36061;48.116;11.612;2022-11-20T12:16:55;1.07;;;0.97;;
50161;SDS011;36061;48.116;11.612;2022-11-20T12:19:22;1.13;;;0.90;;
50161;SDS011;36061;48.116;11.612;2022-11-20T12:22:31;1.27;;;1.13;;
50161;SDS011;36061;48.116;11.612;2022-11-20T12:25:01;2.60;;;1.10;;
50161;SDS011;36061;48.116;11.612;2022-11-20T12:30:22;1.00;;;0.90;;
50161;SDS011;36061;48.116;11.612;2022-11-20T12:47:50;1.07;;;0.97;;
50161;SDS011;36061;48.116;11.612;2022-11-20T12:59:21;0.83;;;0.80;;
50161;SDS011;36061;48.116;11.612;2022-11-20T13:08:03;2.60;;;1.73;;
50161;SDS011;36061;48.116;11.612;2022-11-20T13:10:35;2.67;;;1.87;;
50161;SDS011;36061;48.116;11.612;2022-11-20T13:18:34;1.30;;;1.10;;
50161;SDS011;36061;48.116;11.612;2022-11-20T13:21:35;2.07;;;1.40;;
50161;SDS011;36061;48.116;11.612;2022-11-20T13:24:22;1.53;;;1.03;;
50161;SDS011;36061;48.116;11.612;2022-11-20T13:27:02;1.70;;;1.30;;
50161;SDS011;36061;48.116;11.612;2022-11-20T13:29:44;1.20;;;1.10;;
50161;SDS011;36061;48.116;11.612;2022-11-20T13:32:18;2.50;;;1.20;;
50161;SDS011;36061;48.116;11.612;2022-11-20T13:35:02;1.70;;;1.20;;
50161;SDS011;36061;48.116;11.612;2022-11-20T13:40:11;4.03;;;1.40;;
50161;SDS011;36061;48.116;11.612;2022-11-20T13:42:40;2.90;;;1.80;;
50161;SDS011;36061;48.116;11.612;2022-11-20T13:45:11;2.80;;;1.70;;
50161;SDS011;36061;48.116;11.612;2022-11-20T13:47:59;1.90;;;1.40;;
50161;SDS011;36061;48.116;11.612;2022-11-20T13:53:22;3.37;;;1.20;;
50161;SDS011;36061;48.116;11.612;2022-11-20T13:59:05;1.20;;;1.10;;
50161;SDS011;36061;48.116;11.612;2022-11-20T14:01:53;1.47;;;1.10;;
50161;SDS011;36061;48.116;11.612;2022-11-20T14:04:23;1.67;;;1.33;;
50161;SDS011;36061;48.116;11.612;2022-11-20T14:06:54;3.23;;;2.03;;
50161;SDS011;36061;48.116;11.612;2022-11-20T14:09:30;3.47;;;2.40;;
50161;SDS011;36061;48.116;11.612;2022-11-20T14:11:57;2.93;;;2.00;;
50161;SDS011;36061;48.116;11.612;2022-11-20T14:14:25;3.23;;;2.53;;
50161;SDS011;36061;48.116;11.612;2022-11-20T14:16:52;1.47;;;1.20;;
50161;SDS011;36061;48.116;11.612;2022-11-20T14:19:29;3.57;;;3.17;;
50161;SDS011;36061;48.116;11.612;2022-11-20T14:24:48;1.53;;;1.30;;
50161;SDS011;36061;48.116;11.612;2022-11-20T14:27:25;1.67;;;1.20;;
50161;SDS011;36061;48.116;11.612;2022-11-20T14:29:51;1.23;;;1.13;;
50161;SDS011;36061;48.116;11.612;2022-11-20T14:32:17;2.30;;;1.53;;
50161;SDS011;36061;48.116;11.612;2022-11-20T14:34:48;2.07;;;1.20;;
50161;SDS011;36061;48.116;11.612;2022-11-20T14:37:20;1.40;;;1.10;;
50161;SDS011;36061;48.116;11.612;2022-11-20T14:39:50;2.43;;;1.20;;
50161;SDS011;36061;48.116;11.612;2022-11-20T14:42:18;1.50;;;1.20;;
50161;SDS011;36061;48.116;11.612;2022-11-20T14:44:45;3.20;;;1.53;;
50161;SDS011;36061;48.116;11.612;2022-11-20T14:47:12;2.87;;;1.50;;
50161;SDS011;36061;48.116;11.612;2022-11-20T14:49:40;1.93;;;0.93;;
50161;SDS011;36061;48.116;11.612;2022-11-20T14:52:16;3.27;;;1.10;;
50161;SDS011;36061;48.116;11.612;2022-11-20T14:54:51;1.80;;;1.20;;
50161;SDS011;36061;48.116;11.612;2022-11-20T15:02:45;3.13;;;1.70;;
50161;SDS011;36061;48.116;11.612;2022-11-20T15:05:13;2.20;;;1.07;;
50161;SDS011;36061;48.116;11.612;2022-11-20T15:07:44;1.20;;;0.90;;
50161;SDS011;36061;48.116;11.612;2022-11-20T15:12:49;1.10;;;0.80;;
50161;SDS011;36061;48.116;11.612;2022-11-20T15:16:08;0.70;;;0.70;;
50161;SDS011;36061;48.116;11.612;2022-11-20T15:18:16;0.63;;;0.63;;
50161;SDS011;36061;48.116;11.612;2022-11-20T15:20:44;2.90;;;1.53;;
50161;SDS011;36061;48.116;11.612;2022-11-20T15:23:11;1.70;;;1.13;;
50161;SDS011;36061;48.116;11.612;2022-11-20T15:25:41;1.87;;;0.80;;
50161;SDS011;36061;48.116;11.612;2022-11-20T15:28:17;0.70;;;0.70;;
50161;SDS011;36061;48.116;11.612;2022-11-20T15:30:46;3.17;;;0.87;;
50161;SDS011;36061;48.116;11.612;2022-11-20T15:33:13;1.13;;;0.90;;
50161;SDS011;36061;48.116;11.612;2022-11-20T15:35:40;2.13;;;1.10;;
50161;SDS011;36061;48.116;11.612;2022-11-20T15:38:06;1.80;;;0.83;;
50161;SDS011;36061;48.116;11.612;2022-11-20T15:40:32;1.10;;;0.80;;
50161;SDS011;36061;48.116;11.612;2022-11-20T15:42:57;1.07;;;0.90;;
50161;SDS011;36061;48.116;11.612;2022-11-20T15:45:30;1.10;;;0.80;;
50161;SDS011;36061;48.116;11.612;2022-11-20T15:48:14;1.90;;;1.10;;
50161;SDS011;36061;48.116;11.612;2022-11-20T15:53:22;2.90;;;1.50;;
50161;SDS011;36061;48.116;11.612;2022-11-20T15:55:48;1.10;;;1.00;;
50161;SDS011;36061;48.116;11.612;2022-11-20T15:58:13;1.57;;;1.30;;
50161;SDS011;36061;48.116;11.612;2022-11-20T16:00:41;1.53;;;1.30;;
50161;SDS011;36061;48.116;11.612;2022-11-20T16:03:11;4.47;;;1.67;;
50161;SDS011;36061;48.116;11.612;2022-11-20T16:05:38;13.40;;;5.43;;
50161;SDS011;36061;48.116;11.612;2022-11-20T16:08:04;2.07;;;1.80;;
50161;SDS011;36061;48.116;11.612;2022-11-20T16:10:30;2.27;;;1.30;;
50161;SDS011;36061;48.116;11.612;2022-11-20T16:12:56;3.47;;;1.33;;
50161;SDS011;36061;48.116;11.612;2022-11-20T16:15:40;2.03;;;1.47;;
50161;SDS011;36061;48.116;11.612;2022-11-20T16:18:13;2.20;;;1.40;;
50161;SDS011;36061;48.116;11.612;2022-11-20T16:20:41;3.03;;;1.70;;
50161;SDS011;36061;48.116;11.612;2022-11-20T16:23:07;4.23;;;2.03;;
50161;SDS011;36061;48.116;11.612;2022-11-20T16:25:33;2.33;;;1.30;;
50161;SDS011;36061;48.116;11.612;2022-11-20T16:27:59;1.67;;;1.07;;
50161;SDS011;36061;48.116;11.612;2022-11-20T16:30:25;3.60;;;1.67;;
50161;SDS011;36061;48.116;11.612;2022-11-20T16:32:52;2.27;;;1.50;;
50161;SDS011;36061;48.116;11.612;2022-11-20T16:35:17;5.70;;;1.77;;
50161;SDS011;36061;48.116;11.612;2022-11-20T16:37:43;6.50;;;2.27;;
50161;SDS011;36061;48.116;11.612;2022-11-20T16:40:09;1.77;;;1.50;;
50161;SDS011;36061;48.116;11.612;2022-11-20T16:42:36;2.20;;;1.60;;
50161;SDS011;36061;48.116;11.612;2022-11-20T16:45:02;3.77;;;1.47;;